Time;durP1;ratioP1;P1;durP2;ratioP2;P2;SDS_P1;SDS_P2;PMS_P1;PMS_P2;Temp;Humidity;BMP_temperature;BMP_pressure;BME280_temperature;BME280_humidity;BME280_pressure;Samples;Min_cycle;Max_cycle;Signal;HPM_P1;HPM_P2
2023/09/14 00:02:20;;;;;;;6.93;3.33;;;;;;;;;;5008309;28;20473;-81
2023/09/14 00:04:48;;;;;;;3.97;2.57;;;;;;;;;;5012960;28;20476;-82
2023/09/14 00:07:14;;;;;;;5.40;2.53;;;;;;;;;;5017176;28;20525;-82
2023/09/14 00:09:41;;;;;;;4.60;2.30;;;;;;;;;;5015187;28;20441;-81
2023/09/14 00:12:07;;;;;;;4.77;2.30;;;;;;;;;;5012214;28;20448;-81
2023/09/14 00:14:33;;;;;;;4.40;1.97;;;;;;;;;;5020716;28;20443;-82
2023/09/14 00:17:00;;;;;;;6.47;2.70;;;;;;;;;;5014674;28;20468;-82
2023/09/14 00:19:28;;;;;;;5.50;2.50;;;;;;;;;;5020483;28;20477;-82
2023/09/14 00:21:54;;;;;;;8.30;2.60;;;;;;;;;;5020033;28;20802;-82
2023/09/14 00:24:21;;;;;;;5.90;2.30;;;;;;;;;;5006910;28;20449;-82
2023/09/14 00:26:47;;;;;;;5.30;2.60;;;;;;;;;;4992907;28;20467;-81
2023/09/14 00:29:14;;;;;;;7.10;2.30;;;;;;;;;;5009018;28;20984;-82
2023/09/14 00:31:40;;;;;;;4.77;2.63;;;;;;;;;;5017869;28;20843;-81
2023/09/14 00:34:06;;;;;;;7.80;2.43;;;;;;;;;;5011159;28;20534;-81
2023/09/14 00:36:34;;;;;;;5.60;2.33;;;;;;;;;;5015841;28;20452;-82
2023/09/14 00:39:01;;;;;;;6.23;2.77;;;;;;;;;;5013444;28;20447;-82
2023/09/14 00:41:27;;;;;;;6.10;2.87;;;;;;;;;;5016093;28;20457;-83
2023/09/14 00:43:55;;;;;;;9.73;2.23;;;;;;;;;;5015734;28;21010;-80
2023/09/14 00:46:22;;;;;;;5.50;2.17;;;;;;;;;;5009352;28;20489;-81
2023/09/14 00:48:48;;;;;;;3.73;2.33;;;;;;;;;;4999120;28;20465;-81
2023/09/14 00:51:15;;;;;;;4.60;2.90;;;;;;;;;;5019473;28;20558;-81
2023/09/14 00:53:43;;;;;;;15.00;2.77;;;;;;;;;;5019145;28;20733;-81
2023/09/14 00:56:10;;;;;;;6.60;2.40;;;;;;;;;;5010486;28;20448;-82
2023/09/14 00:58:37;;;;;;;4.00;2.10;;;;;;;;;;4997713;28;20502;-80
2023/09/14 01:01:03;;;;;;;3.13;1.90;;;;;;;;;;5025772;28;21161;-80
2023/09/14 01:03:30;;;;;;;3.57;2.70;;;;;;;;;;5025310;28;20444;-79
2023/09/14 01:05:56;;;;;;;6.77;2.40;;;;;;;;;;5012803;28;21004;-82
2023/09/14 01:08:23;;;;;;;4.47;2.03;;;;;;;;;;5021072;28;21053;-81
2023/09/14 01:10:51;;;;;;;5.53;2.50;;;;;;;;;;5010510;28;20454;-80
2023/09/14 01:13:23;;;;;;;4.00;2.30;;;;;;;;;;5002313;28;20586;-82
2023/09/14 01:15:52;;;;;;;5.47;2.13;;;;;;;;;;5011856;28;20448;-81
2023/09/14 01:18:21;;;;;;;5.50;2.97;;;;;;;;;;5006477;28;20456;-81
2023/09/14 01:21:10;;;;;;;3.77;2.00;;;;;;;;;;5011962;28;20532;-81
2023/09/14 01:23:38;;;;;;;9.03;2.40;;;;;;;;;;5015059;28;20452;-82
2023/09/14 01:26:07;;;;;;;3.43;3.00;;;;;;;;;;5015189;28;20487;-82
2023/09/14 01:28:33;;;;;;;8.53;2.63;;;;;;;;;;5010946;28;20979;-82
2023/09/14 01:31:00;;;;;;;6.87;2.27;;;;;;;;;;5008885;28;20482;-83
2023/09/14 01:33:27;;;;;;;3.97;2.30;;;;;;;;;;5019396;28;20450;-80
2023/09/14 01:35:55;;;;;;;4.80;2.17;;;;;;;;;;5016318;28;20459;-82
2023/09/14 01:38:23;;;;;;;5.70;3.13;;;;;;;;;;5005449;28;20997;-82
2023/09/14 01:40:49;;;;;;;3.57;2.33;;;;;;;;;;5032531;28;20473;-80
2023/09/14 01:43:18;;;;;;;4.10;2.10;;;;;;;;;;4995130;28;20817;-80
2023/09/14 01:45:45;;;;;;;6.63;2.50;;;;;;;;;;5025763;28;20448;-80
2023/09/14 01:48:14;;;;;;;5.43;2.23;;;;;;;;;;5007751;28;20486;-82
2023/09/14 01:50:42;;;;;;;3.10;2.27;;;;;;;;;;5011127;28;20440;-80
2023/09/14 01:53:08;;;;;;;4.60;2.20;;;;;;;;;;4992454;28;20972;-81
2023/09/14 01:55:35;;;;;;;9.60;2.67;;;;;;;;;;5013148;28;20969;-80
2023/09/14 01:58:01;;;;;;;5.60;2.50;;;;;;;;;;4987779;28;20483;-82
2023/09/14 02:00:29;;;;;;;7.10;2.80;;;;;;;;;;5014156;28;20448;-83
2023/09/14 02:02:55;;;;;;;6.37;2.97;;;;;;;;;;5017843;28;20458;-80
2023/09/14 02:05:22;;;;;;;6.23;3.50;;;;;;;;;;5018448;28;20438;-82
2023/09/14 02:07:49;;;;;;;4.83;2.20;;;;;;;;;;5012976;28;20475;-82
2023/09/14 02:10:15;;;;;;;6.50;1.97;;;;;;;;;;5014043;28;20811;-82
2023/09/14 02:12:42;;;;;;;6.80;2.43;;;;;;;;;;5014601;28;20809;-81
2023/09/14 02:15:09;;;;;;;17.70;2.80;;;;;;;;;;5008350;28;20470;-80
2023/09/14 02:17:37;;;;;;;6.43;2.57;;;;;;;;;;5016417;28;20479;-80
2023/09/14 02:20:06;;;;;;;3.00;2.53;;;;;;;;;;5008232;28;20637;-82
2023/09/14 02:22:33;;;;;;;4.37;2.63;;;;;;;;;;5016019;28;20472;-81
2023/09/14 02:24:59;;;;;;;7.07;2.30;;;;;;;;;;5006989;28;20981;-80
2023/09/14 02:27:26;;;;;;;2.27;2.07;;;;;;;;;;5012418;28;20500;-83
2023/09/14 02:29:53;;;;;;;4.40;1.93;;;;;;;;;;5013013;28;20468;-81
2023/09/14 02:32:20;;;;;;;4.70;1.97;;;;;;;;;;5019600;28;20978;-82
2023/09/14 02:34:49;;;;;;;4.40;2.10;;;;;;;;;;5009131;28;20532;-82
2023/09/14 02:37:15;;;;;;;5.47;2.00;;;;;;;;;;5011038;28;20888;-83
2023/09/14 02:39:42;;;;;;;5.03;2.40;;;;;;;;;;5011463;28;20472;-82
2023/09/14 02:42:08;;;;;;;5.97;2.20;;;;;;;;;;5019681;28;20444;-80
2023/09/14 02:44:36;;;;;;;4.40;1.80;;;;;;;;;;5003120;28;20441;-82
2023/09/14 02:47:02;;;;;;;3.27;2.63;;;;;;;;;;5009355;28;20471;-81
2023/09/14 02:49:29;;;;;;;2.70;1.90;;;;;;;;;;5011540;28;20470;-83
2023/09/14 02:51:56;;;;;;;5.80;2.13;;;;;;;;;;5022292;28;20450;-82
2023/09/14 02:54:23;;;;;;;3.50;2.13;;;;;;;;;;4998986;28;20429;-83
2023/09/14 02:56:49;;;;;;;5.20;2.37;;;;;;;;;;5016173;28;20441;-81
2023/09/14 02:59:17;;;;;;;3.57;2.13;;;;;;;;;;5012067;28;20462;-82
2023/09/14 03:01:45;;;;;;;3.70;2.33;;;;;;;;;;5006355;28;20474;-83
2023/09/14 03:04:11;;;;;;;4.47;2.30;;;;;;;;;;5008647;28;20497;-81
2023/09/14 03:06:38;;;;;;;9.67;2.40;;;;;;;;;;5009654;28;20455;-82
2023/09/14 03:09:06;;;;;;;5.57;3.10;;;;;;;;;;4998754;28;20459;-81
2023/09/14 03:11:33;;;;;;;6.30;2.67;;;;;;;;;;5013347;28;20488;-82
2023/09/14 03:13:59;;;;;;;6.40;2.60;;;;;;;;;;5026502;28;20842;-81
2023/09/14 03:16:25;;;;;;;6.23;2.10;;;;;;;;;;5012986;28;20449;-82
2023/09/14 03:18:52;;;;;;;6.33;2.87;;;;;;;;;;5014619;28;20460;-84
2023/09/14 03:21:25;;;;;;;7.53;3.10;;;;;;;;;;5020099;28;20477;-80
2023/09/14 03:23:51;;;;;;;6.30;2.50;;;;;;;;;;5004851;28;20456;-82
2023/09/14 03:26:19;;;;;;;12.07;3.30;;;;;;;;;;5008003;28;20444;-82
2023/09/14 03:28:47;;;;;;;11.63;2.90;;;;;;;;;;4991709;28;20460;-81
2023/09/14 03:31:13;;;;;;;2.73;2.13;;;;;;;;;;5002506;28;21007;-81
2023/09/14 03:33:40;;;;;;;8.90;3.00;;;;;;;;;;4994316;28;20443;-82
2023/09/14 03:36:06;;;;;;;6.60;2.40;;;;;;;;;;5019470;28;20467;-82
2023/09/14 03:38:33;;;;;;;3.70;2.37;;;;;;;;;;5012152;28;20474;-81
2023/09/14 03:40:59;;;;;;;2.43;2.03;;;;;;;;;;5009330;28;20443;-81
2023/09/14 03:43:27;;;;;;;4.50;2.83;;;;;;;;;;5008174;28;20476;-82
2023/09/14 03:45:53;;;;;;;2.60;1.87;;;;;;;;;;5002817;28;20458;-81
2023/09/14 03:48:20;;;;;;;2.50;1.90;;;;;;;;;;4989188;28;20497;-82
2023/09/14 03:50:48;;;;;;;7.93;2.60;;;;;;;;;;5007451;28;20442;-82
2023/09/14 03:53:15;;;;;;;3.13;2.23;;;;;;;;;;5022003;28;20502;-82
2023/09/14 03:55:42;;;;;;;4.80;2.63;;;;;;;;;;5015948;28;20480;-81
2023/09/14 03:58:08;;;;;;;5.80;2.37;;;;;;;;;;5015352;28;20464;-82
2023/09/14 04:00:36;;;;;;;4.50;1.90;;;;;;;;;;5018054;28;20462;-83
2023/09/14 04:03:03;;;;;;;3.13;2.47;;;;;;;;;;5013332;28;20468;-80
2023/09/14 04:05:29;;;;;;;8.47;2.70;;;;;;;;;;4987425;28;20469;-80
2023/09/14 04:07:56;;;;;;;6.87;2.63;;;;;;;;;;4997654;28;20460;-81
2023/09/14 04:10:23;;;;;;;5.00;2.70;;;;;;;;;;5016217;28;20473;-82
2023/09/14 04:12:50;;;;;;;2.30;2.10;;;;;;;;;;5009089;28;20520;-82
2023/09/14 04:15:16;;;;;;;5.40;2.23;;;;;;;;;;5008108;28;20469;-82
2023/09/14 04:17:44;;;;;;;6.30;2.50;;;;;;;;;;5011942;28;21142;-82
2023/09/14 04:20:10;;;;;;;5.20;2.23;;;;;;;;;;5020798;28;20446;-81
2023/09/14 04:22:37;;;;;;;6.03;2.00;;;;;;;;;;4999512;28;20469;-82
2023/09/14 04:25:04;;;;;;;2.80;2.40;;;;;;;;;;5003801;28;20472;-82
2023/09/14 04:27:30;;;;;;;4.53;2.50;;;;;;;;;;4998220;28;20561;-81
2023/09/14 04:29:57;;;;;;;4.73;2.20;;;;;;;;;;5002052;28;20489;-82
2023/09/14 04:32:23;;;;;;;7.63;3.00;;;;;;;;;;4993224;28;20407;-81
2023/09/14 04:34:51;;;;;;;5.23;2.30;;;;;;;;;;5020195;28;20249;-81
2023/09/14 04:37:19;;;;;;;4.63;2.27;;;;;;;;;;5014842;28;20540;-82
2023/09/14 04:39:46;;;;;;;5.27;2.57;;;;;;;;;;5018015;28;20847;-83
2023/09/14 04:42:12;;;;;;;3.90;1.90;;;;;;;;;;5016010;28;20436;-83
2023/09/14 04:44:39;;;;;;;5.53;2.40;;;;;;;;;;5015261;28;20431;-81
2023/09/14 04:47:05;;;;;;;4.10;2.50;;;;;;;;;;5012330;28;20952;-81
2023/09/14 04:49:32;;;;;;;3.47;2.20;;;;;;;;;;5014979;28;20482;-82
2023/09/14 04:52:00;;;;;;;3.53;2.40;;;;;;;;;;5025828;28;20476;-82
2023/09/14 04:54:28;;;;;;;7.53;2.37;;;;;;;;;;5016742;28;20442;-82
2023/09/14 04:56:54;;;;;;;3.73;2.10;;;;;;;;;;5005877;28;20469;-81
2023/09/14 04:59:21;;;;;;;5.67;1.87;;;;;;;;;;5011224;28;21014;-82
2023/09/14 05:01:48;;;;;;;4.83;2.70;;;;;;;;;;5019628;28;20446;-82
2023/09/14 05:04:14;;;;;;;8.10;3.00;;;;;;;;;;5012181;28;20442;-81
2023/09/14 05:06:41;;;;;;;5.03;2.77;;;;;;;;;;5014806;28;20466;-82
2023/09/14 05:09:10;;;;;;;5.80;2.40;;;;;;;;;;5020777;28;20470;-82
2023/09/14 05:11:37;;;;;;;5.83;3.77;;;;;;;;;;5006402;28;20462;-82
2023/09/14 05:14:03;;;;;;;3.20;2.00;;;;;;;;;;5015128;28;20442;-82
2023/09/14 05:16:29;;;;;;;4.33;2.63;;;;;;;;;;5018452;28;20477;-82
2023/09/14 05:18:56;;;;;;;6.10;3.00;;;;;;;;;;5008931;28;20488;-82
2023/09/14 05:21:22;;;;;;;3.50;2.60;;;;;;;;;;4987866;28;20469;-82
2023/09/14 05:23:49;;;;;;;5.83;3.00;;;;;;;;;;5013285;28;20482;-82
2023/09/14 05:26:17;;;;;;;4.93;2.83;;;;;;;;;;5013650;28;20806;-80
2023/09/14 05:28:43;;;;;;;8.43;3.30;;;;;;;;;;5015402;28;20983;-82
2023/09/14 05:31:10;;;;;;;4.90;3.00;;;;;;;;;;5022514;28;20467;-82
2023/09/14 05:33:36;;;;;;;7.70;3.07;;;;;;;;;;5005857;28;20500;-82
2023/09/14 05:36:04;;;;;;;8.10;2.90;;;;;;;;;;5005077;28;20440;-82
2023/09/14 05:38:30;;;;;;;5.17;2.73;;;;;;;;;;5012971;28;20503;-82
2023/09/14 05:40:56;;;;;;;3.27;2.97;;;;;;;;;;5009734;28;20906;-82
2023/09/14 05:43:24;;;;;;;6.70;2.63;;;;;;;;;;5012595;28;20999;-80
2023/09/14 05:45:51;;;;;;;5.33;2.20;;;;;;;;;;5004267;28;20469;-79
2023/09/14 05:48:18;;;;;;;4.10;3.13;;;;;;;;;;5009712;28;20528;-81
2023/09/14 05:50:44;;;;;;;4.93;2.40;;;;;;;;;;5012329;28;20461;-81
2023/09/14 05:53:11;;;;;;;6.93;3.30;;;;;;;;;;5010863;28;20473;-81
2023/09/14 05:55:37;;;;;;;7.33;3.80;;;;;;;;;;5028441;28;20890;-81
2023/09/14 05:58:04;;;;;;;6.07;2.67;;;;;;;;;;5015718;28;21325;-81
2023/09/14 06:00:32;;;;;;;10.33;4.40;;;;;;;;;;5021245;28;20843;-80
2023/09/14 06:02:59;;;;;;;8.23;4.50;;;;;;;;;;5001177;28;20530;-81
2023/09/14 06:05:25;;;;;;;7.67;3.10;;;;;;;;;;4992824;28;20442;-80
2023/09/14 06:07:51;;;;;;;6.87;2.50;;;;;;;;;;5013658;28;20446;-80
2023/09/14 06:10:18;;;;;;;7.27;2.80;;;;;;;;;;5014759;28;20480;-80
2023/09/14 06:12:44;;;;;;;6.40;2.80;;;;;;;;;;5005213;28;20473;-80
2023/09/14 06:15:12;;;;;;;5.80;2.80;;;;;;;;;;5004360;28;20470;-80
2023/09/14 06:17:41;;;;;;;7.97;3.60;;;;;;;;;;5005585;28;20448;-79
2023/09/14 06:20:08;;;;;;;10.30;4.10;;;;;;;;;;5010703;28;20471;-80
2023/09/14 06:22:34;;;;;;;10.77;3.70;;;;;;;;;;5009127;28;20444;-79
2023/09/14 06:25:00;;;;;;;4.27;2.87;;;;;;;;;;5008297;28;20966;-80
2023/09/14 06:27:27;;;;;;;9.10;3.80;;;;;;;;;;5015961;28;20482;-81
2023/09/14 06:29:53;;;;;;;8.60;3.90;;;;;;;;;;4979325;28;20478;-82
2023/09/14 06:32:21;;;;;;;5.87;3.27;;;;;;;;;;5008025;28;20433;-81
2023/09/14 06:34:48;;;;;;;7.90;3.50;;;;;;;;;;5015762;28;20466;-80
2023/09/14 06:37:16;;;;;;;9.37;3.70;;;;;;;;;;5015039;28;20957;-81
2023/09/14 06:39:42;;;;;;;6.93;3.60;;;;;;;;;;5009245;28;20534;-80
2023/09/14 06:42:09;;;;;;;6.93;3.90;;;;;;;;;;5000870;28;20500;-80
2023/09/14 06:44:36;;;;;;;10.43;3.70;;;;;;;;;;4997661;28;21001;-81
2023/09/14 06:47:02;;;;;;;6.73;4.13;;;;;;;;;;4988605;28;20466;-81
2023/09/14 06:49:30;;;;;;;13.57;4.63;;;;;;;;;;5022687;28;20473;-81
2023/09/14 06:51:58;;;;;;;11.27;4.53;;;;;;;;;;5001520;28;20523;-80
2023/09/14 06:54:25;;;;;;;9.40;3.33;;;;;;;;;;5011965;28;20823;-81
2023/09/14 06:56:51;;;;;;;9.80;4.07;;;;;;;;;;5006307;28;20442;-80
2023/09/14 06:59:18;;;;;;;6.73;4.00;;;;;;;;;;5009242;28;20453;-80
2023/09/14 07:01:44;;;;;;;8.83;3.33;;;;;;;;;;5003310;28;20444;-80
2023/09/14 07:04:12;;;;;;;8.03;3.40;;;;;;;;;;5008307;28;20453;-81
2023/09/14 07:06:39;;;;;;;8.27;4.20;;;;;;;;;;5011164;28;20484;-81
2023/09/14 07:09:07;;;;;;;8.77;3.30;;;;;;;;;;5008283;28;20472;-81
2023/09/14 07:11:33;;;;;;;10.07;4.47;;;;;;;;;;5007056;28;20463;-81
2023/09/14 07:14:00;;;;;;;8.20;4.07;;;;;;;;;;5018270;28;20437;-80
2023/09/14 07:16:27;;;;;;;7.43;3.33;;;;;;;;;;5017826;28;20473;-80
2023/09/14 07:18:54;;;;;;;9.17;4.23;;;;;;;;;;5000674;28;20489;-81
2023/09/14 07:21:21;;;;;;;7.97;4.30;;;;;;;;;;5011597;28;20464;-82
2023/09/14 07:23:47;;;;;;;9.20;4.10;;;;;;;;;;5012912;28;20478;-81
2023/09/14 07:26:16;;;;;;;6.00;3.63;;;;;;;;;;5011488;28;20472;-81
2023/09/14 07:28:42;;;;;;;14.03;5.40;;;;;;;;;;5018798;28;20447;-81
2023/09/14 07:31:08;;;;;;;7.23;4.00;;;;;;;;;;5012964;28;20465;-81
2023/09/14 07:33:35;;;;;;;7.13;3.57;;;;;;;;;;5007470;28;20861;-81
2023/09/14 07:36:01;;;;;;;6.17;3.83;;;;;;;;;;5022390;28;20442;-80
2023/09/14 07:38:28;;;;;;;10.30;3.47;;;;;;;;;;4986963;28;20445;-80
2023/09/14 07:40:55;;;;;;;8.50;3.83;;;;;;;;;;5024801;28;20471;-80
2023/09/14 07:43:25;;;;;;;7.77;4.00;;;;;;;;;;5015248;28;20477;-80
2023/09/14 07:45:52;;;;;;;7.97;3.50;;;;;;;;;;5019628;28;20559;-80
2023/09/14 07:48:18;;;;;;;7.03;4.00;;;;;;;;;;5025490;28;20966;-82
2023/09/14 07:50:44;;;;;;;9.73;3.17;;;;;;;;;;5021284;28;20450;-80
2023/09/14 07:53:11;;;;;;;4.10;2.73;;;;;;;;;;5017320;28;20449;-81
2023/09/14 07:55:37;;;;;;;6.50;3.50;;;;;;;;;;5009707;28;20838;-80
2023/09/14 07:58:06;;;;;;;6.40;2.70;;;;;;;;;;4991600;28;20463;-80
2023/09/14 08:00:34;;;;;;;6.80;3.23;;;;;;;;;;5010993;28;20556;-81
2023/09/14 08:03:00;;;;;;;3.63;3.00;;;;;;;;;;5018219;28;20476;-80
2023/09/14 08:05:26;;;;;;;5.07;3.27;;;;;;;;;;5010984;28;20466;-80
2023/09/14 08:07:53;;;;;;;7.03;2.80;;;;;;;;;;5011851;28;20470;-80
2023/09/14 08:10:19;;;;;;;5.63;2.83;;;;;;;;;;5007113;28;20493;-80
2023/09/14 08:12:46;;;;;;;6.43;3.27;;;;;;;;;;5017530;28;21027;-80
2023/09/14 08:15:13;;;;;;;5.20;2.50;;;;;;;;;;5016142;28;21214;-81
2023/09/14 08:17:41;;;;;;;9.87;3.37;;;;;;;;;;5019870;28;20473;-80
2023/09/14 08:20:08;;;;;;;7.50;2.60;;;;;;;;;;5011302;28;20488;-81
2023/09/14 08:22:34;;;;;;;9.27;3.37;;;;;;;;;;5014850;28;20853;-82
2023/09/14 08:25:03;;;;;;;5.43;2.63;;;;;;;;;;5014931;28;20467;-81
2023/09/14 08:27:29;;;;;;;10.67;3.27;;;;;;;;;;5018735;28;21009;-81
2023/09/14 08:29:55;;;;;;;3.17;2.43;;;;;;;;;;5027956;28;20486;-81
2023/09/14 08:32:22;;;;;;;7.03;2.60;;;;;;;;;;5016616;28;20556;-80
2023/09/14 08:34:49;;;;;;;4.13;2.30;;;;;;;;;;5007730;28;20478;-80
2023/09/14 08:37:16;;;;;;;2.07;1.87;;;;;;;;;;4974372;28;20483;-81
2023/09/14 08:39:47;;;;;;;4.80;2.10;;;;;;;;;;5016579;28;20552;-80
2023/09/14 08:42:14;;;;;;;5.00;2.17;;;;;;;;;;5008128;28;20479;-81
2023/09/14 08:44:41;;;;;;;3.87;1.87;;;;;;;;;;5004609;28;20486;-80
2023/09/14 08:47:08;;;;;;;3.70;1.83;;;;;;;;;;4993339;28;20479;-80
2023/09/14 08:49:35;;;;;;;4.43;1.57;;;;;;;;;;5006149;28;20489;-81
2023/09/14 08:52:04;;;;;;;3.80;1.90;;;;;;;;;;5002243;28;20449;-80
2023/09/14 08:54:31;;;;;;;4.10;1.60;;;;;;;;;;5018214;28;20476;-81
2023/09/14 08:56:58;;;;;;;7.17;2.20;;;;;;;;;;5015847;28;20479;-80
2023/09/14 08:59:25;;;;;;;10.47;1.80;;;;;;;;;;5018638;28;20478;-80
2023/09/14 09:01:52;;;;;;;4.93;2.50;;;;;;;;;;5003889;28;20493;-79
2023/09/14 09:04:18;;;;;;;3.70;1.40;;;;;;;;;;5012220;28;20496;-80
2023/09/14 09:06:44;;;;;;;10.13;2.03;;;;;;;;;;5018960;28;20854;-81
2023/09/14 09:09:15;;;;;;;3.00;1.70;;;;;;;;;;5001640;28;20491;-80
2023/09/14 09:11:41;;;;;;;4.33;1.70;;;;;;;;;;5011507;28;20532;-80
2023/09/14 09:14:08;;;;;;;1.60;1.50;;;;;;;;;;5015485;28;20478;-81
2023/09/14 09:16:35;;;;;;;7.30;1.50;;;;;;;;;;5008780;28;20469;-80
2023/09/14 09:19:02;;;;;;;3.97;1.10;;;;;;;;;;5003697;28;20472;-81
2023/09/14 09:21:29;;;;;;;2.10;1.17;;;;;;;;;;5007832;28;20991;-80
2023/09/14 09:23:56;;;;;;;5.97;1.77;;;;;;;;;;5019603;28;20532;-79
2023/09/14 09:26:24;;;;;;;5.57;1.60;;;;;;;;;;5002670;28;20467;-80
2023/09/14 09:28:51;;;;;;;3.20;0.90;;;;;;;;;;5009023;28;20479;-80
2023/09/14 09:31:18;;;;;;;3.03;1.10;;;;;;;;;;5014180;28;20575;-80
2023/09/14 09:33:47;;;;;;;5.33;1.57;;;;;;;;;;5018520;28;20484;-79
2023/09/14 09:36:15;;;;;;;3.13;1.20;;;;;;;;;;5013726;28;20467;-79
2023/09/14 09:38:42;;;;;;;1.93;1.20;;;;;;;;;;5017049;28;20870;-80
2023/09/14 09:41:11;;;;;;;9.17;1.60;;;;;;;;;;4978314;28;20470;-80
2023/09/14 09:43:39;;;;;;;3.53;1.07;;;;;;;;;;4998647;28;20482;-79
2023/09/14 09:46:14;;;;;;;4.63;1.20;;;;;;;;;;5013163;28;20458;-80
2023/09/14 09:48:40;;;;;;;2.33;1.30;;;;;;;;;;5017987;28;20886;-80
2023/09/14 09:51:07;;;;;;;5.23;1.40;;;;;;;;;;5016602;28;20473;-80
2023/09/14 09:53:35;;;;;;;3.47;1.40;;;;;;;;;;5022603;28;20492;-80
2023/09/14 09:56:02;;;;;;;2.27;1.43;;;;;;;;;;5001635;28;20489;-80
2023/09/14 09:58:34;;;;;;;3.03;1.33;;;;;;;;;;5017313;28;20468;-80
2023/09/14 10:01:06;;;;;;;2.10;1.20;;;;;;;;;;5002780;28;20474;-81
2023/09/14 10:03:37;;;;;;;3.70;1.47;;;;;;;;;;5000137;28;20571;-80
2023/09/14 10:06:04;;;;;;;2.70;1.27;;;;;;;;;;4998892;28;20480;-80
2023/09/14 10:08:31;;;;;;;7.13;1.30;;;;;;;;;;5014834;28;21030;-78
2023/09/14 10:10:58;;;;;;;4.17;2.33;;;;;;;;;;5020402;28;20487;-79
2023/09/14 10:13:24;;;;;;;2.37;1.10;;;;;;;;;;5018931;28;20468;-79
2023/09/14 10:15:51;;;;;;;1.30;1.20;;;;;;;;;;5012163;28;20468;-78
2023/09/14 10:18:19;;;;;;;4.17;1.27;;;;;;;;;;5013374;28;20496;-80
2023/09/14 10:20:47;;;;;;;1.90;1.30;;;;;;;;;;5009813;28;20475;-79
2023/09/14 10:23:14;;;;;;;5.17;1.50;;;;;;;;;;5019954;28;20469;-79
2023/09/14 10:25:41;;;;;;;5.03;1.30;;;;;;;;;;5018458;28;20534;-80
2023/09/14 10:28:09;;;;;;;1.80;1.10;;;;;;;;;;5027006;28;20457;-80
2023/09/14 10:30:35;;;;;;;3.70;1.40;;;;;;;;;;5012711;28;20479;-79
2023/09/14 10:33:02;;;;;;;3.10;1.57;;;;;;;;;;5009669;28;21004;-81
2023/09/14 10:35:31;;;;;;;1.53;1.23;;;;;;;;;;4985188;28;20473;-79
2023/09/14 10:37:59;;;;;;;6.03;2.43;;;;;;;;;;5004843;28;20555;-80
2023/09/14 10:40:26;;;;;;;2.90;2.10;;;;;;;;;;4988896;28;20478;-80
2023/09/14 10:42:53;;;;;;;3.83;1.80;;;;;;;;;;5008456;28;20467;-79
2023/09/14 10:45:20;;;;;;;2.00;1.33;;;;;;;;;;5020049;28;21005;-80
2023/09/14 10:47:49;;;;;;;2.00;1.30;;;;;;;;;;5008431;28;20477;-79
2023/09/14 10:50:16;;;;;;;5.63;2.17;;;;;;;;;;5001918;28;20476;-79
2023/09/14 10:52:44;;;;;;;2.83;1.53;;;;;;;;;;5014304;28;20460;-80
2023/09/14 10:55:10;;;;;;;1.73;1.20;;;;;;;;;;5006138;28;20466;-79
2023/09/14 10:57:39;;;;;;;6.37;1.40;;;;;;;;;;4979392;28;20472;-79
2023/09/14 11:00:06;;;;;;;4.07;1.23;;;;;;;;;;4974864;28;20475;-79
2023/09/14 11:02:51;;;;;;;3.20;1.50;;;;;;;;;;5002387;28;20521;-80
2023/09/14 11:05:18;;;;;;;6.67;1.87;;;;;;;;;;5019305;28;20475;-79
2023/09/14 11:07:48;;;;;;;6.53;1.40;;;;;;;;;;5022460;28;20463;-79
2023/09/14 11:10:16;;;;;;;3.13;1.60;;;;;;;;;;5013974;28;20524;-80
2023/09/14 11:12:43;;;;;;;5.73;1.50;;;;;;;;;;5013341;28;20473;-81
2023/09/14 11:15:14;;;;;;;1.43;1.33;;;;;;;;;;5015886;28;20862;-78
2023/09/14 11:17:43;;;;;;;2.00;1.30;;;;;;;;;;5013656;28;20467;-80
2023/09/14 11:20:24;;;;;;;2.23;1.13;;;;;;;;;;4996266;28;20684;-80
2023/09/14 11:22:53;;;;;;;9.23;1.77;;;;;;;;;;5021670;28;20957;-81
2023/09/14 11:25:25;;;;;;;3.57;1.33;;;;;;;;;;5021712;28;20462;-80
2023/09/14 11:27:52;;;;;;;2.80;1.33;;;;;;;;;;5006490;28;20477;-80
2023/09/14 11:30:20;;;;;;;2.80;2.03;;;;;;;;;;5025662;28;20480;-79
2023/09/14 11:32:47;;;;;;;2.60;1.33;;;;;;;;;;5020491;28;20838;-80
2023/09/14 11:35:14;;;;;;;3.43;1.03;;;;;;;;;;5020026;28;21012;-79
2023/09/14 11:37:40;;;;;;;3.60;1.00;;;;;;;;;;5025025;28;20460;-80
2023/09/14 11:40:12;;;;;;;6.87;1.77;;;;;;;;;;5022620;28;20991;-79
2023/09/14 11:42:57;;;;;;;2.20;1.23;;;;;;;;;;4999324;28;20477;-80
2023/09/14 11:45:24;;;;;;;5.83;1.80;;;;;;;;;;5013265;28;20482;-81
2023/09/14 11:47:50;;;;;;;1.90;1.40;;;;;;;;;;4992803;28;20532;-79
2023/09/14 11:50:20;;;;;;;2.70;1.60;;;;;;;;;;5004807;28;20469;-81
2023/09/14 11:52:46;;;;;;;2.43;1.70;;;;;;;;;;5018201;28;20495;-79
2023/09/14 11:55:16;;;;;;;2.87;1.27;;;;;;;;;;5024650;28;20473;-79
2023/09/14 11:57:42;;;;;;;2.37;1.30;;;;;;;;;;5016388;28;20458;-80
2023/09/14 12:00:09;;;;;;;3.70;1.70;;;;;;;;;;5011519;28;20506;-79
2023/09/14 12:02:35;;;;;;;3.00;1.27;;;;;;;;;;5010960;28;20468;-80
2023/09/14 12:05:02;;;;;;;3.87;1.90;;;;;;;;;;5015642;28;20474;-80
2023/09/14 12:07:29;;;;;;;4.17;1.73;;;;;;;;;;5021505;28;20494;-78
2023/09/14 12:09:55;;;;;;;4.97;1.60;;;;;;;;;;5014230;28;20507;-78
2023/09/14 12:12:27;;;;;;;1.83;1.20;;;;;;;;;;5008708;28;20992;-80
2023/09/14 12:14:53;;;;;;;2.27;1.43;;;;;;;;;;5012059;28;20470;-78
2023/09/14 12:17:21;;;;;;;2.60;1.43;;;;;;;;;;4989825;28;20530;-80
2023/09/14 12:19:50;;;;;;;1.27;1.07;;;;;;;;;;5008164;28;20469;-80
2023/09/14 12:22:18;;;;;;;2.27;1.00;;;;;;;;;;5009652;28;20476;-79
2023/09/14 12:24:45;;;;;;;3.87;1.47;;;;;;;;;;5014397;28;20481;-79
2023/09/14 12:27:11;;;;;;;2.97;1.40;;;;;;;;;;5004238;28;20466;-81
2023/09/14 12:29:39;;;;;;;3.43;1.10;;;;;;;;;;5016955;28;20493;-79
2023/09/14 12:32:06;;;;;;;2.50;1.30;;;;;;;;;;5003959;28;20525;-79
2023/09/14 12:34:34;;;;;;;3.50;1.37;;;;;;;;;;5023738;28;20481;-79
2023/09/14 12:37:01;;;;;;;3.20;1.20;;;;;;;;;;5012587;28;20472;-78
2023/09/14 12:39:28;;;;;;;5.00;1.10;;;;;;;;;;5015078;28;20460;-82
2023/09/14 12:41:54;;;;;;;2.77;1.27;;;;;;;;;;5024302;28;20556;-80
2023/09/14 12:44:22;;;;;;;2.73;1.20;;;;;;;;;;5016416;28;20464;-80
2023/09/14 12:46:51;;;;;;;10.93;1.73;;;;;;;;;;4989957;28;20487;-79
2023/09/14 12:49:17;;;;;;;2.20;1.07;;;;;;;;;;5000090;28;20475;-79
2023/09/14 12:51:47;;;;;;;2.87;1.60;;;;;;;;;;5004826;28;20498;-78
2023/09/14 12:54:13;;;;;;;2.53;1.43;;;;;;;;;;5008384;28;20480;-79
2023/09/14 12:56:41;;;;;;;2.40;1.37;;;;;;;;;;5014189;28;20561;-78
2023/09/14 12:59:08;;;;;;;3.70;1.20;;;;;;;;;;5018469;28;20492;-78
2023/09/14 13:01:38;;;;;;;1.63;1.23;;;;;;;;;;5003401;28;20515;-79
2023/09/14 13:04:06;;;;;;;2.87;1.20;;;;;;;;;;5004860;28;20495;-78
2023/09/14 13:06:33;;;;;;;2.23;1.13;;;;;;;;;;5016826;28;20853;-79
2023/09/14 13:09:06;;;;;;;3.23;1.07;;;;;;;;;;5010936;28;20470;-80
2023/09/14 13:11:34;;;;;;;4.80;1.50;;;;;;;;;;4989668;28;20489;-81
2023/09/14 13:14:01;;;;;;;9.13;1.37;;;;;;;;;;4980691;28;20593;-81
2023/09/14 13:16:27;;;;;;;2.23;1.40;;;;;;;;;;5007250;28;20472;-82
2023/09/14 13:18:54;;;;;;;4.40;1.57;;;;;;;;;;5013202;28;20965;-80
2023/09/14 13:21:22;;;;;;;2.63;1.70;;;;;;;;;;5017136;28;20963;-78
2023/09/14 13:23:48;;;;;;;4.87;1.57;;;;;;;;;;5015719;28;20979;-81
2023/09/14 13:26:15;;;;;;;2.30;1.50;;;;;;;;;;4981127;28;20489;-80
2023/09/14 13:28:41;;;;;;;3.40;1.70;;;;;;;;;;5021556;28;20470;-78
2023/09/14 13:31:11;;;;;;;4.93;1.70;;;;;;;;;;4988457;28;20474;-80
2023/09/14 13:33:37;;;;;;;4.47;1.20;;;;;;;;;;5008458;28;20860;-78
2023/09/14 13:36:04;;;;;;;4.13;2.03;;;;;;;;;;5009481;28;20459;-79
2023/09/14 13:38:31;;;;;;;5.83;1.60;;;;;;;;;;5017992;28;20473;-81
2023/09/14 13:40:58;;;;;;;4.40;1.63;;;;;;;;;;5014954;28;20473;-80
2023/09/14 13:43:25;;;;;;;5.80;2.53;;;;;;;;;;4991670;28;20495;-80
2023/09/14 13:45:52;;;;;;;2.50;1.60;;;;;;;;;;5016588;28;20473;-81
2023/09/14 13:48:19;;;;;;;2.03;1.40;;;;;;;;;;5008077;28;20918;-80
2023/09/14 13:50:46;;;;;;;4.67;1.80;;;;;;;;;;5007511;28;20472;-80
2023/09/14 13:53:13;;;;;;;3.63;1.70;;;;;;;;;;4999646;28;20508;-81
2023/09/14 13:55:43;;;;;;;3.83;1.50;;;;;;;;;;5006459;28;21023;-81
2023/09/14 13:58:10;;;;;;;1.67;1.27;;;;;;;;;;5013438;28;20495;-80
2023/09/14 14:00:36;;;;;;;2.50;1.73;;;;;;;;;;4999308;28;20467;-81
2023/09/14 14:03:11;;;;;;;1.57;1.47;;;;;;;;;;5009267;28;20467;-80
2023/09/14 14:05:38;;;;;;;2.30;1.50;;;;;;;;;;5002053;28;20501;-82
2023/09/14 14:08:05;;;;;;;2.73;1.03;;;;;;;;;;4993616;28;20484;-79
2023/09/14 14:10:32;;;;;;;3.00;1.40;;;;;;;;;;5024317;28;20477;-79
2023/09/14 14:13:01;;;;;;;4.70;1.83;;;;;;;;;;4997923;28;20505;-80
2023/09/14 14:15:27;;;;;;;3.83;1.30;;;;;;;;;;5018662;28;20989;-79
2023/09/14 14:17:56;;;;;;;2.93;1.57;;;;;;;;;;5009849;28;20978;-80
2023/09/14 14:20:23;;;;;;;2.90;1.43;;;;;;;;;;5018305;28;20472;-81
2023/09/14 14:22:49;;;;;;;4.10;1.80;;;;;;;;;;5024557;28;20472;-81
2023/09/14 14:25:16;;;;;;;3.73;1.43;;;;;;;;;;5009879;28;21019;-80
2023/09/14 14:27:42;;;;;;;5.53;1.70;;;;;;;;;;5016527;28;20475;-79
2023/09/14 14:30:11;;;;;;;2.37;1.33;;;;;;;;;;5007118;28;20486;-81
2023/09/14 14:32:38;;;;;;;2.20;1.50;;;;;;;;;;5021293;28;20493;-80
2023/09/14 14:35:05;;;;;;;4.07;1.93;;;;;;;;;;5013030;28;20470;-81
2023/09/14 14:37:32;;;;;;;2.30;1.60;;;;;;;;;;5016001;28;20476;-80
2023/09/14 14:39:58;;;;;;;4.40;1.50;;;;;;;;;;5016670;28;20561;-80
2023/09/14 14:42:25;;;;;;;1.67;1.20;;;;;;;;;;5007539;28;20475;-80
2023/09/14 14:44:51;;;;;;;8.97;1.73;;;;;;;;;;5008172;28;21073;-81